Loyal, WI

4:39 AM CST on February 06, 2016 (GMT -0600)
Backyard, N. Andrews Ave | | Change Station
CLOSE
Current Station
Personal Weather Station
Location: Greenwood, WI
Elevation: 1161 ft
Nearby Weather Stations

Elev 1161 ft 44.77 °N, 90.60 °W | Updated 11 seconds ago

Overcast
Overcast
23.2 °F
Feels Like 18 °F
N
3.7
Wind Variable Wind from SW
Gusts 5.1 mph

Today
High -- | Low -- °F
--% Chance of Precip.
Yesterday
High -- | Low -- °F
Precip. -- in
Pressure 30.11 in
Visibility 3.0 miles
Clouds Overcast 400 ft
Windchill 18 °F
Dew Point 18 °F
Humidity 82%
Rainfall 0.00 in
Snow Depth Not available.
7:15 AM 5:17 PM
Waning Crescent, 6% visible
SPECI KMFI 061035Z AUTO 23008KT 3SM BR OVC004 M05/M07 A3011 RMK AO2 I1001 T10501067
Pressure 30.11 in
Visibility 3.0 miles
Clouds Overcast 400 ft
Windchill 18 °F
Dew Point 18 °F
Humidity 82%
Rainfall 0.00 in
Snow Depth Not available.
7:15 AM 5:17 PM
Waning Crescent, 6% visible
SPECI KMFI 061035Z AUTO 23008KT 3SM BR OVC004 M05/M07 A3011 RMK AO2 I1001 T10501067

10-Day Weather Forecast

Almanac

Astronomy

Feb. 06, 2016 Rise Set
Actual Time
Civil Twilight
Nautical Twilight
Astronomical Twilight
Moon
Length of Visible Light
Length of Day
Tomorrow will be .
, % of the Moon is Illuminated

Today's Extremes

State Highs State Lows

Community

WunderPhotos

Upload Photos

1,890,933 photos uploaded!

WunderBlog® & News

Nearby

Air Quality

  Air Quality AQ Index Pollutant
Not available.

Snow Depth

Station Depth Elevation

Earthquake Activity

City Distance Mag. Time & Date
Minimum magnitude displayed is 2.5.

Coastal Water Temperatures

Place Temperature

Stations

Nearby Weather Stations

Station Location Temp. Windchill Dew Point Humidity Wind Precip. Elev Updated Type
                   

Watches & Warnings

There are currently no watches in effect.